sensor_id;sensor_type;location;lat;lon;timestamp;P1;durP1;ratioP1;P2;durP2;ratioP2
22298;SDS011;11317;51.072;17.036;2022-08-21T00:01:02;12.65;;;8.00;;
22298;SDS011;11317;51.072;17.036;2022-08-21T00:03:31;11.82;;;6.82;;
22298;SDS011;11317;51.072;17.036;2022-08-21T00:05:56;11.45;;;7.72;;
22298;SDS011;11317;51.072;17.036;2022-08-21T00:08:22;12.40;;;7.85;;
22298;SDS011;11317;51.072;17.036;2022-08-21T00:10:48;12.88;;;7.13;;
22298;SDS011;11317;51.072;17.036;2022-08-21T00:13:15;12.32;;;7.68;;
22298;SDS011;11317;51.072;17.036;2022-08-21T00:15:41;12.70;;;7.38;;
22298;SDS011;11317;51.072;17.036;2022-08-21T00:18:08;13.45;;;7.75;;
22298;SDS011;11317;51.072;17.036;2022-08-21T00:20:36;12.30;;;7.70;;
22298;SDS011;11317;51.072;17.036;2022-08-21T00:23:03;14.52;;;8.38;;
22298;SDS011;11317;51.072;17.036;2022-08-21T00:25:29;15.57;;;7.85;;
22298;SDS011;11317;51.072;17.036;2022-08-21T00:27:55;10.68;;;7.03;;
22298;SDS011;11317;51.072;17.036;2022-08-21T00:30:21;12.75;;;7.03;;
22298;SDS011;11317;51.072;17.036;2022-08-21T00:32:49;12.18;;;7.57;;
22298;SDS011;11317;51.072;17.036;2022-08-21T00:35:16;11.20;;;7.45;;
22298;SDS011;11317;51.072;17.036;2022-08-21T00:37:50;10.63;;;7.38;;
22298;SDS011;11317;51.072;17.036;2022-08-21T00:40:16;10.27;;;6.63;;
22298;SDS011;11317;51.072;17.036;2022-08-21T00:42:45;11.48;;;6.35;;
22298;SDS011;11317;51.072;17.036;2022-08-21T00:45:11;12.50;;;7.90;;
22298;SDS011;11317;51.072;17.036;2022-08-21T00:47:37;11.32;;;6.40;;
22298;SDS011;11317;51.072;17.036;2022-08-21T00:50:04;8.65;;;6.13;;
22298;SDS011;11317;51.072;17.036;2022-08-21T00:52:32;8.70;;;6.03;;
22298;SDS011;11317;51.072;17.036;2022-08-21T00:55:01;10.15;;;6.22;;
22298;SDS011;11317;51.072;17.036;2022-08-21T00:57:29;8.05;;;5.53;;
22298;SDS011;11317;51.072;17.036;2022-08-21T00:59:59;9.25;;;5.88;;
22298;SDS011;11317;51.072;17.036;2022-08-21T01:02:28;10.27;;;6.20;;
22298;SDS011;11317;51.072;17.036;2022-08-21T01:04:54;10.88;;;5.88;;
22298;SDS011;11317;51.072;17.036;2022-08-21T01:07:19;10.70;;;5.25;;
22298;SDS011;11317;51.072;17.036;2022-08-21T01:09:46;8.68;;;5.20;;
22298;SDS011;11317;51.072;17.036;2022-08-21T01:12:12;8.80;;;5.65;;
22298;SDS011;11317;51.072;17.036;2022-08-21T01:14:39;9.40;;;5.75;;
22298;SDS011;11317;51.072;17.036;2022-08-21T01:17:07;9.63;;;5.50;;
22298;SDS011;11317;51.072;17.036;2022-08-21T01:19:34;9.20;;;5.50;;
22298;SDS011;11317;51.072;17.036;2022-08-21T01:22:00;12.85;;;5.28;;
22298;SDS011;11317;51.072;17.036;2022-08-21T01:24:26;7.32;;;5.47;;
22298;SDS011;11317;51.072;17.036;2022-08-21T01:26:52;6.35;;;4.22;;
22298;SDS011;11317;51.072;17.036;2022-08-21T01:29:38;7.30;;;4.68;;
22298;SDS011;11317;51.072;17.036;2022-08-21T01:32:10;5.32;;;4.05;;
22298;SDS011;11317;51.072;17.036;2022-08-21T01:34:39;8.45;;;5.20;;
22298;SDS011;11317;51.072;17.036;2022-08-21T01:37:06;8.27;;;4.85;;
22298;SDS011;11317;51.072;17.036;2022-08-21T01:39:32;6.43;;;4.95;;
22298;SDS011;11317;51.072;17.036;2022-08-21T01:41:58;7.93;;;4.60;;
22298;SDS011;11317;51.072;17.036;2022-08-21T01:44:25;9.68;;;5.70;;
22298;SDS011;11317;51.072;17.036;2022-08-21T01:46:51;9.40;;;5.45;;
22298;SDS011;11317;51.072;17.036;2022-08-21T01:49:17;9.20;;;5.55;;
22298;SDS011;11317;51.072;17.036;2022-08-21T01:51:43;11.93;;;5.05;;
22298;SDS011;11317;51.072;17.036;2022-08-21T01:54:09;7.00;;;4.70;;
22298;SDS011;11317;51.072;17.036;2022-08-21T01:56:36;9.48;;;4.88;;
22298;SDS011;11317;51.072;17.036;2022-08-21T01:59:06;9.63;;;5.20;;
22298;SDS011;11317;51.072;17.036;2022-08-21T02:01:32;5.45;;;4.00;;
22298;SDS011;11317;51.072;17.036;2022-08-21T02:03:57;5.50;;;3.72;;
22298;SDS011;11317;51.072;17.036;2022-08-21T02:06:24;5.88;;;4.25;;
22298;SDS011;11317;51.072;17.036;2022-08-21T02:08:51;6.47;;;4.50;;
22298;SDS011;11317;51.072;17.036;2022-08-21T02:11:17;6.65;;;4.00;;
22298;SDS011;11317;51.072;17.036;2022-08-21T02:13:43;6.18;;;3.45;;
22298;SDS011;11317;51.072;17.036;2022-08-21T02:16:09;4.93;;;3.72;;
22298;SDS011;11317;51.072;17.036;2022-08-21T02:18:35;6.57;;;3.30;;
22298;SDS011;11317;51.072;17.036;2022-08-21T02:21:01;3.65;;;2.70;;
22298;SDS011;11317;51.072;17.036;2022-08-21T02:23:27;4.57;;;3.05;;
22298;SDS011;11317;51.072;17.036;2022-08-21T02:26:00;3.28;;;2.50;;
22298;SDS011;11317;51.072;17.036;2022-08-21T02:28:27;3.55;;;2.53;;
22298;SDS011;11317;51.072;17.036;2022-08-21T02:30:54;3.35;;;2.25;;
22298;SDS011;11317;51.072;17.036;2022-08-21T02:33:21;3.72;;;2.30;;
22298;SDS011;11317;51.072;17.036;2022-08-21T02:35:48;3.63;;;2.78;;
22298;SDS011;11317;51.072;17.036;2022-08-21T02:38:15;3.78;;;2.53;;
22298;SDS011;11317;51.072;17.036;2022-08-21T02:40:43;4.22;;;2.42;;
22298;SDS011;11317;51.072;17.036;2022-08-21T02:43:11;2.35;;;1.95;;
22298;SDS011;11317;51.072;17.036;2022-08-21T02:45:37;3.42;;;2.15;;
22298;SDS011;11317;51.072;17.036;2022-08-21T02:48:07;7.20;;;2.42;;
22298;SDS011;11317;51.072;17.036;2022-08-21T02:50:36;2.53;;;2.10;;
22298;SDS011;11317;51.072;17.036;2022-08-21T02:53:08;2.22;;;1.98;;
22298;SDS011;11317;51.072;17.036;2022-08-21T02:55:36;3.00;;;2.10;;
22298;SDS011;11317;51.072;17.036;2022-08-21T02:58:03;3.78;;;2.60;;
22298;SDS011;11317;51.072;17.036;2022-08-21T03:00:30;3.75;;;2.67;;
22298;SDS011;11317;51.072;17.036;2022-08-21T03:02:56;4.18;;;2.33;;
22298;SDS011;11317;51.072;17.036;2022-08-21T03:05:23;3.40;;;2.70;;
22298;SDS011;11317;51.072;17.036;2022-08-21T03:07:50;3.20;;;2.17;;
22298;SDS011;11317;51.072;17.036;2022-08-21T03:10:17;4.10;;;2.28;;
22298;SDS011;11317;51.072;17.036;2022-08-21T03:12:44;3.35;;;2.08;;
22298;SDS011;11317;51.072;17.036;2022-08-21T03:15:11;2.83;;;2.08;;
22298;SDS011;11317;51.072;17.036;2022-08-21T03:17:38;3.00;;;2.22;;
22298;SDS011;11317;51.072;17.036;2022-08-21T03:20:05;2.88;;;2.53;;
22298;SDS011;11317;51.072;17.036;2022-08-21T03:22:32;3.58;;;2.20;;
22298;SDS011;11317;51.072;17.036;2022-08-21T03:24:58;2.10;;;1.70;;
22298;SDS011;11317;51.072;17.036;2022-08-21T03:27:24;2.75;;;2.20;;
22298;SDS011;11317;51.072;17.036;2022-08-21T03:29:52;2.58;;;2.00;;
22298;SDS011;11317;51.072;17.036;2022-08-21T03:32:18;3.10;;;2.13;;
22298;SDS011;11317;51.072;17.036;2022-08-21T03:34:44;2.22;;;1.70;;
22298;SDS011;11317;51.072;17.036;2022-08-21T03:37:11;2.95;;;1.63;;
22298;SDS011;11317;51.072;17.036;2022-08-21T03:39:36;2.58;;;2.20;;
22298;SDS011;11317;51.072;17.036;2022-08-21T03:42:02;2.97;;;2.15;;
22298;SDS011;11317;51.072;17.036;2022-08-21T03:44:29;2.92;;;2.10;;
22298;SDS011;11317;51.072;17.036;2022-08-21T03:46:56;2.58;;;2.15;;
22298;SDS011;11317;51.072;17.036;2022-08-21T03:49:22;2.05;;;1.73;;
22298;SDS011;11317;51.072;17.036;2022-08-21T03:51:48;2.15;;;1.52;;
22298;SDS011;11317;51.072;17.036;2022-08-21T03:54:14;2.65;;;1.90;;
22298;SDS011;11317;51.072;17.036;2022-08-21T03:56:41;2.65;;;1.95;;
22298;SDS011;11317;51.072;17.036;2022-08-21T03:59:07;2.08;;;1.80;;
22298;SDS011;11317;51.072;17.036;2022-08-21T04:01:33;2.72;;;2.05;;
22298;SDS011;11317;51.072;17.036;2022-08-21T04:03:59;3.95;;;2.13;;
22298;SDS011;11317;51.072;17.036;2022-08-21T04:06:25;2.25;;;1.75;;
22298;SDS011;11317;51.072;17.036;2022-08-21T04:08:52;2.42;;;2.08;;
22298;SDS011;11317;51.072;17.036;2022-08-21T04:11:24;2.95;;;2.33;;
22298;SDS011;11317;51.072;17.036;2022-08-21T04:13:50;2.60;;;1.80;;
22298;SDS011;11317;51.072;17.036;2022-08-21T04:16:16;3.03;;;2.10;;
22298;SDS011;11317;51.072;17.036;2022-08-21T04:18:44;2.20;;;1.70;;
22298;SDS011;11317;51.072;17.036;2022-08-21T04:21:10;2.63;;;2.05;;
22298;SDS011;11317;51.072;17.036;2022-08-21T04:23:36;3.53;;;2.22;;
22298;SDS011;11317;51.072;17.036;2022-08-21T04:26:02;3.03;;;2.20;;
22298;SDS011;11317;51.072;17.036;2022-08-21T04:28:28;3.00;;;2.30;;
22298;SDS011;11317;51.072;17.036;2022-08-21T04:30:55;2.63;;;2.08;;
22298;SDS011;11317;51.072;17.036;2022-08-21T04:33:21;2.50;;;2.05;;
22298;SDS011;11317;51.072;17.036;2022-08-21T04:35:50;3.67;;;2.55;;
22298;SDS011;11317;51.072;17.036;2022-08-21T04:38:16;2.17;;;1.88;;
22298;SDS011;11317;51.072;17.036;2022-08-21T04:40:45;2.50;;;2.00;;
22298;SDS011;11317;51.072;17.036;2022-08-21T04:43:11;3.75;;;2.20;;
22298;SDS011;11317;51.072;17.036;2022-08-21T04:45:38;2.25;;;2.05;;
22298;SDS011;11317;51.072;17.036;2022-08-21T04:48:10;2.72;;;2.13;;
22298;SDS011;11317;51.072;17.036;2022-08-21T04:50:42;2.58;;;2.30;;
22298;SDS011;11317;51.072;17.036;2022-08-21T04:55:47;2.63;;;1.92;;
22298;SDS011;11317;51.072;17.036;2022-08-21T04:58:14;2.78;;;2.28;;
22298;SDS011;11317;51.072;17.036;2022-08-21T05:00:43;3.05;;;1.90;;
22298;SDS011;11317;51.072;17.036;2022-08-21T05:03:10;2.15;;;1.85;;
22298;SDS011;11317;51.072;17.036;2022-08-21T05:05:37;2.70;;;1.90;;
22298;SDS011;11317;51.072;17.036;2022-08-21T05:08:03;1.95;;;1.75;;
22298;SDS011;11317;51.072;17.036;2022-08-21T05:10:29;5.57;;;2.00;;
22298;SDS011;11317;51.072;17.036;2022-08-21T05:12:56;2.08;;;1.85;;
22298;SDS011;11317;51.072;17.036;2022-08-21T05:15:23;1.63;;;1.50;;
22298;SDS011;11317;51.072;17.036;2022-08-21T05:17:49;1.98;;;1.52;;
22298;SDS011;11317;51.072;17.036;2022-08-21T05:20:15;2.20;;;1.60;;
22298;SDS011;11317;51.072;17.036;2022-08-21T05:22:47;2.15;;;1.70;;
22298;SDS011;11317;51.072;17.036;2022-08-21T05:25:14;3.13;;;2.28;;
22298;SDS011;11317;51.072;17.036;2022-08-21T05:27:40;2.42;;;1.50;;
22298;SDS011;11317;51.072;17.036;2022-08-21T05:30:06;1.73;;;1.40;;
22298;SDS011;11317;51.072;17.036;2022-08-21T05:32:35;2.30;;;1.67;;
22298;SDS011;11317;51.072;17.036;2022-08-21T05:35:04;2.53;;;1.90;;
22298;SDS011;11317;51.072;17.036;2022-08-21T05:37:31;2.20;;;1.60;;
22298;SDS011;11317;51.072;17.036;2022-08-21T05:39:58;1.63;;;1.48;;
22298;SDS011;11317;51.072;17.036;2022-08-21T05:42:31;2.17;;;1.77;;
22298;SDS011;11317;51.072;17.036;2022-08-21T05:44:56;1.95;;;1.50;;
22298;SDS011;11317;51.072;17.036;2022-08-21T05:47:25;1.90;;;1.70;;
22298;SDS011;11317;51.072;17.036;2022-08-21T05:49:53;2.05;;;1.85;;
22298;SDS011;11317;51.072;17.036;2022-08-21T05:52:19;1.92;;;1.67;;
22298;SDS011;11317;51.072;17.036;2022-08-21T05:54:46;2.45;;;1.83;;
22298;SDS011;11317;51.072;17.036;2022-08-21T05:57:12;2.58;;;2.28;;
22298;SDS011;11317;51.072;17.036;2022-08-21T05:59:38;2.38;;;2.05;;
22298;SDS011;11317;51.072;17.036;2022-08-21T06:02:10;2.10;;;1.70;;
22298;SDS011;11317;51.072;17.036;2022-08-21T06:04:37;3.15;;;2.08;;
22298;SDS011;11317;51.072;17.036;2022-08-21T06:07:04;3.67;;;1.85;;
22298;SDS011;11317;51.072;17.036;2022-08-21T06:09:34;1.85;;;1.67;;
22298;SDS011;11317;51.072;17.036;2022-08-21T06:12:06;1.95;;;1.77;;
22298;SDS011;11317;51.072;17.036;2022-08-21T06:14:34;1.80;;;1.65;;
22298;SDS011;11317;51.072;17.036;2022-08-21T06:17:03;4.03;;;2.38;;
22298;SDS011;11317;51.072;17.036;2022-08-21T06:19:30;3.03;;;1.83;;
22298;SDS011;11317;51.072;17.036;2022-08-21T06:21:57;3.05;;;2.17;;
22298;SDS011;11317;51.072;17.036;2022-08-21T06:24:23;2.95;;;1.83;;
22298;SDS011;11317;51.072;17.036;2022-08-21T06:26:48;1.77;;;1.65;;
22298;SDS011;11317;51.072;17.036;2022-08-21T06:29:14;3.78;;;2.00;;
22298;SDS011;11317;51.072;17.036;2022-08-21T06:31:45;3.45;;;1.90;;
22298;SDS011;11317;51.072;17.036;2022-08-21T06:34:11;2.08;;;1.88;;
22298;SDS011;11317;51.072;17.036;2022-08-21T06:36:40;3.38;;;2.13;;
22298;SDS011;11317;51.072;17.036;2022-08-21T06:39:06;2.88;;;2.20;;
22298;SDS011;11317;51.072;17.036;2022-08-21T06:41:35;2.53;;;1.90;;
22298;SDS011;11317;51.072;17.036;2022-08-21T06:44:01;1.98;;;1.50;;
22298;SDS011;11317;51.072;17.036;2022-08-21T06:46:28;2.88;;;1.83;;
22298;SDS011;11317;51.072;17.036;2022-08-21T06:48:55;2.60;;;1.92;;
22298;SDS011;11317;51.072;17.036;2022-08-21T06:51:21;2.95;;;2.05;;
22298;SDS011;11317;51.072;17.036;2022-08-21T06:53:47;3.63;;;2.20;;
22298;SDS011;11317;51.072;17.036;2022-08-21T06:56:13;7.25;;;2.30;;
22298;SDS011;11317;51.072;17.036;2022-08-21T06:58:39;2.80;;;2.10;;
22298;SDS011;11317;51.072;17.036;2022-08-21T07:01:08;4.30;;;2.28;;
22298;SDS011;11317;51.072;17.036;2022-08-21T07:03:35;3.55;;;2.22;;
22298;SDS011;11317;51.072;17.036;2022-08-21T07:06:04;2.88;;;2.03;;
22298;SDS011;11317;51.072;17.036;2022-08-21T07:08:31;2.80;;;2.50;;
22298;SDS011;11317;51.072;17.036;2022-08-21T07:10:57;3.33;;;2.55;;
22298;SDS011;11317;51.072;17.036;2022-08-21T07:13:26;3.65;;;2.47;;
22298;SDS011;11317;51.072;17.036;2022-08-21T07:15:52;4.88;;;2.78;;
22298;SDS011;11317;51.072;17.036;2022-08-21T07:18:20;4.68;;;2.20;;
22298;SDS011;11317;51.072;17.036;2022-08-21T07:20:46;4.25;;;2.72;;
22298;SDS011;11317;51.072;17.036;2022-08-21T07:23:15;4.00;;;3.03;;
22298;SDS011;11317;51.072;17.036;2022-08-21T07:25:48;7.45;;;3.08;;
22298;SDS011;11317;51.072;17.036;2022-08-21T07:28:14;5.63;;;2.83;;
22298;SDS011;11317;51.072;17.036;2022-08-21T07:30:40;6.05;;;3.17;;
22298;SDS011;11317;51.072;17.036;2022-08-21T07:33:06;5.43;;;3.40;;
22298;SDS011;11317;51.072;17.036;2022-08-21T07:35:32;5.25;;;3.30;;
22298;SDS011;11317;51.072;17.036;2022-08-21T07:37:58;5.03;;;3.30;;
22298;SDS011;11317;51.072;17.036;2022-08-21T07:40:24;7.32;;;3.58;;
22298;SDS011;11317;51.072;17.036;2022-08-21T07:42:50;7.50;;;3.55;;
22298;SDS011;11317;51.072;17.036;2022-08-21T07:45:17;5.90;;;3.13;;
22298;SDS011;11317;51.072;17.036;2022-08-21T07:47:48;4.78;;;3.03;;
22298;SDS011;11317;51.072;17.036;2022-08-21T07:50:14;5.43;;;3.30;;
22298;SDS011;11317;51.072;17.036;2022-08-21T07:52:40;4.38;;;3.10;;
22298;SDS011;11317;51.072;17.036;2022-08-21T07:55:08;4.57;;;3.15;;
22298;SDS011;11317;51.072;17.036;2022-08-21T07:57:38;6.07;;;2.85;;
22298;SDS011;11317;51.072;17.036;2022-08-21T08:00:05;4.88;;;2.90;;
22298;SDS011;11317;51.072;17.036;2022-08-21T08:02:33;6.82;;;3.55;;
22298;SDS011;11317;51.072;17.036;2022-08-21T08:04:59;5.30;;;2.83;;
22298;SDS011;11317;51.072;17.036;2022-08-21T08:07:26;4.22;;;2.70;;
22298;SDS011;11317;51.072;17.036;2022-08-21T08:09:52;3.00;;;2.30;;
22298;SDS011;11317;51.072;17.036;2022-08-21T08:12:18;2.92;;;2.40;;
22298;SDS011;11317;51.072;17.036;2022-08-21T08:14:45;4.00;;;2.10;;
22298;SDS011;11317;51.072;17.036;2022-08-21T08:17:10;3.70;;;2.67;;
22298;SDS011;11317;51.072;17.036;2022-08-21T08:19:38;4.97;;;2.60;;
22298;SDS011;11317;51.072;17.036;2022-08-21T08:22:12;2.85;;;1.83;;
22298;SDS011;11317;51.072;17.036;2022-08-21T08:24:39;2.72;;;2.35;;
22298;SDS011;11317;51.072;17.036;2022-08-21T08:27:04;2.60;;;2.10;;
22298;SDS011;11317;51.072;17.036;2022-08-21T08:29:30;3.28;;;2.35;;
22298;SDS011;11317;51.072;17.036;2022-08-21T08:31:56;4.15;;;2.45;;
22298;SDS011;11317;51.072;17.036;2022-08-21T08:34:23;6.35;;;2.08;;
22298;SDS011;11317;51.072;17.036;2022-08-21T08:36:48;3.58;;;2.20;;
22298;SDS011;11317;51.072;17.036;2022-08-21T08:39:15;4.63;;;2.30;;
22298;SDS011;11317;51.072;17.036;2022-08-21T08:41:41;2.92;;;2.10;;
22298;SDS011;11317;51.072;17.036;2022-08-21T08:44:12;6.78;;;3.13;;
22298;SDS011;11317;51.072;17.036;2022-08-21T08:46:39;2.35;;;2.15;;
22298;SDS011;11317;51.072;17.036;2022-08-21T08:49:15;3.10;;;2.60;;
22298;SDS011;11317;51.072;17.036;2022-08-21T08:54:27;3.28;;;1.92;;
22298;SDS011;11317;51.072;17.036;2022-08-21T08:57:06;2.65;;;2.17;;
22298;SDS011;11317;51.072;17.036;2022-08-21T08:59:39;2.92;;;1.80;;
22298;SDS011;11317;51.072;17.036;2022-08-21T09:02:07;4.75;;;2.30;;
22298;SDS011;11317;51.072;17.036;2022-08-21T09:04:39;5.60;;;2.42;;
22298;SDS011;11317;51.072;17.036;2022-08-21T09:13:07;3.80;;;2.63;;
22298;SDS011;11317;51.072;17.036;2022-08-21T09:15:59;4.43;;;2.08;;
22298;SDS011;11317;51.072;17.036;2022-08-21T09:21:22;2.88;;;2.22;;
22298;SDS011;11317;51.072;17.036;2022-08-21T09:24:02;6.10;;;2.33;;
22298;SDS011;11317;51.072;17.036;2022-08-21T09:27:02;4.68;;;2.00;;
22298;SDS011;11317;51.072;17.036;2022-08-21T09:29:35;3.90;;;1.95;;
22298;SDS011;11317;51.072;17.036;2022-08-21T09:32:04;4.60;;;1.90;;
22298;SDS011;11317;51.072;17.036;2022-08-21T09:34:55;3.78;;;2.00;;
22298;SDS011;11317;51.072;17.036;2022-08-21T09:37:20;2.22;;;1.92;;
22298;SDS011;11317;51.072;17.036;2022-08-21T09:39:46;2.25;;;1.60;;
22298;SDS011;11317;51.072;17.036;2022-08-21T09:42:20;3.58;;;1.77;;
22298;SDS011;11317;51.072;17.036;2022-08-21T09:44:51;3.92;;;1.70;;
22298;SDS011;11317;51.072;17.036;2022-08-21T09:47:31;3.40;;;1.60;;
22298;SDS011;11317;51.072;17.036;2022-08-21T09:50:06;2.05;;;1.50;;
22298;SDS011;11317;51.072;17.036;2022-08-21T09:52:43;3.50;;;1.60;;
22298;SDS011;11317;51.072;17.036;2022-08-21T09:55:15;3.28;;;1.67;;
22298;SDS011;11317;51.072;17.036;2022-08-21T09:58:03;2.30;;;1.70;;
22298;SDS011;11317;51.072;17.036;2022-08-21T10:00:31;2.42;;;1.50;;
22298;SDS011;11317;51.072;17.036;2022-08-21T10:03:08;1.63;;;1.50;;
22298;SDS011;11317;51.072;17.036;2022-08-21T10:05:39;3.85;;;1.33;;
22298;SDS011;11317;51.072;17.036;2022-08-21T10:08:05;6.15;;;1.48;;
22298;SDS011;11317;51.072;17.036;2022-08-21T10:10:44;2.95;;;1.50;;
22298;SDS011;11317;51.072;17.036;2022-08-21T10:18:31;2.95;;;1.55;;
22298;SDS011;11317;51.072;17.036;2022-08-21T10:21:19;2.72;;;1.45;;
22298;SDS011;11317;51.072;17.036;2022-08-21T10:34:24;2.80;;;1.40;;
22298;SDS011;11317;51.072;17.036;2022-08-21T10:37:18;2.23;;;1.40;;
22298;SDS011;11317;51.072;17.036;2022-08-21T10:42:36;2.28;;;1.33;;
22298;SDS011;11317;51.072;17.036;2022-08-21T10:48:05;3.75;;;1.60;;
22298;SDS011;11317;51.072;17.036;2022-08-21T10:53:19;2.15;;;1.20;;
22298;SDS011;11317;51.072;17.036;2022-08-21T10:55:56;2.75;;;1.27;;
22298;SDS011;11317;51.072;17.036;2022-08-21T10:58:37;3.40;;;1.52;;
22298;SDS011;11317;51.072;17.036;2022-08-21T11:01:15;2.05;;;1.42;;
22298;SDS011;11317;51.072;17.036;2022-08-21T11:03:51;3.15;;;1.50;;
22298;SDS011;11317;51.072;17.036;2022-08-21T11:06:26;1.60;;;1.17;;
22298;SDS011;11317;51.072;17.036;2022-08-21T11:09:04;5.53;;;1.75;;
22298;SDS011;11317;51.072;17.036;2022-08-21T11:11:56;5.22;;;2.83;;
22298;SDS011;11317;51.072;17.036;2022-08-21T11:17:39;1.70;;;1.35;;
22298;SDS011;11317;51.072;17.036;2022-08-21T11:20:15;3.15;;;1.55;;
22298;SDS011;11317;51.072;17.036;2022-08-21T11:23:07;2.72;;;1.38;;
22298;SDS011;11317;51.072;17.036;2022-08-21T11:25:47;1.67;;;1.42;;
22298;SDS011;11317;51.072;17.036;2022-08-21T11:28:23;3.08;;;1.52;;
22298;SDS011;11317;51.072;17.036;2022-08-21T11:34:01;3.05;;;1.90;;
22298;SDS011;11317;51.072;17.036;2022-08-21T11:37:53;3.95;;;1.67;;
22298;SDS011;11317;51.072;17.036;2022-08-21T11:42:40;2.08;;;1.38;;
22298;SDS011;11317;51.072;17.036;2022-08-21T11:47:58;2.55;;;1.63;;
22298;SDS011;11317;51.072;17.036;2022-08-21T11:50:45;5.13;;;1.75;;
22298;SDS011;11317;51.072;17.036;2022-08-21T11:53:21;3.25;;;1.77;;
22298;SDS011;11317;51.072;17.036;2022-08-21T11:58:29;3.03;;;1.80;;
22298;SDS011;11317;51.072;17.036;2022-08-21T12:01:11;3.90;;;1.58;;
22298;SDS011;11317;51.072;17.036;2022-08-21T12:03:42;2.55;;;1.60;;
22298;SDS011;11317;51.072;17.036;2022-08-21T12:06:31;2.80;;;1.70;;
22298;SDS011;11317;51.072;17.036;2022-08-21T12:09:02;2.38;;;1.38;;
22298;SDS011;11317;51.072;17.036;2022-08-21T12:11:45;3.55;;;1.88;;
22298;SDS011;11317;51.072;17.036;2022-08-21T12:14:14;1.95;;;1.67;;
22298;SDS011;11317;51.072;17.036;2022-08-21T12:16:45;3.78;;;1.55;;
22298;SDS011;11317;51.072;17.036;2022-08-21T12:19:35;4.13;;;1.60;;
22298;SDS011;11317;51.072;17.036;2022-08-21T12:22:08;2.22;;;1.55;;
22298;SDS011;11317;51.072;17.036;2022-08-21T12:24:41;3.55;;;2.03;;
22298;SDS011;11317;51.072;17.036;2022-08-21T12:27:28;2.95;;;1.83;;
22298;SDS011;11317;51.072;17.036;2022-08-21T12:30:07;4.60;;;1.63;;
22298;SDS011;11317;51.072;17.036;2022-08-21T12:32:46;3.38;;;1.35;;
22298;SDS011;11317;51.072;17.036;2022-08-21T12:35:33;2.72;;;1.73;;
22298;SDS011;11317;51.072;17.036;2022-08-21T12:38:09;2.50;;;1.58;;
22298;SDS011;11317;51.072;17.036;2022-08-21T12:40:52;2.75;;;1.50;;
22298;SDS011;11317;51.072;17.036;2022-08-21T12:43:27;4.25;;;2.03;;
22298;SDS011;11317;51.072;17.036;2022-08-21T12:45:55;4.05;;;1.90;;
22298;SDS011;11317;51.072;17.036;2022-08-21T12:48:26;2.08;;;1.63;;
22298;SDS011;11317;51.072;17.036;2022-08-21T12:50:57;4.75;;;1.83;;
22298;SDS011;11317;51.072;17.036;2022-08-21T12:53:41;3.25;;;1.67;;
22298;SDS011;11317;51.072;17.036;2022-08-21T12:56:34;3.40;;;2.25;;
22298;SDS011;11317;51.072;17.036;2022-08-21T12:59:02;2.28;;;1.45;;
22298;SDS011;11317;51.072;17.036;2022-08-21T13:01:31;3.67;;;1.52;;
22298;SDS011;11317;51.072;17.036;2022-08-21T13:04:06;2.00;;;1.63;;
22298;SDS011;11317;51.072;17.036;2022-08-21T13:06:39;3.92;;;2.00;;
22298;SDS011;11317;51.072;17.036;2022-08-21T13:09:11;4.88;;;1.98;;
22298;SDS011;11317;51.072;17.036;2022-08-21T13:11:39;2.53;;;1.77;;
22298;SDS011;11317;51.072;17.036;2022-08-21T13:14:10;4.43;;;1.80;;
22298;SDS011;11317;51.072;17.036;2022-08-21T13:16:53;3.75;;;2.00;;
22298;SDS011;11317;51.072;17.036;2022-08-21T13:19:21;2.05;;;1.70;;
22298;SDS011;11317;51.072;17.036;2022-08-21T13:21:47;4.05;;;2.40;;
22298;SDS011;11317;51.072;17.036;2022-08-21T13:26:39;4.70;;;2.47;;
22298;SDS011;11317;51.072;17.036;2022-08-21T13:29:09;2.55;;;2.35;;
22298;SDS011;11317;51.072;17.036;2022-08-21T13:31:37;3.67;;;2.67;;
22298;SDS011;11317;51.072;17.036;2022-08-21T13:34:07;4.45;;;2.50;;
22298;SDS011;11317;51.072;17.036;2022-08-21T13:36:37;4.35;;;1.95;;
22298;SDS011;11317;51.072;17.036;2022-08-21T13:39:12;2.63;;;1.88;;
22298;SDS011;11317;51.072;17.036;2022-08-21T13:41:43;3.53;;;2.28;;
22298;SDS011;11317;51.072;17.036;2022-08-21T13:44:15;2.22;;;2.00;;
22298;SDS011;11317;51.072;17.036;2022-08-21T13:46:41;3.88;;;2.53;;
22298;SDS011;11317;51.072;17.036;2022-08-21T13:49:08;2.75;;;2.13;;
22298;SDS011;11317;51.072;17.036;2022-08-21T13:51:35;3.33;;;1.88;;
22298;SDS011;11317;51.072;17.036;2022-08-21T13:54:12;4.72;;;2.20;;
22298;SDS011;11317;51.072;17.036;2022-08-21T13:56:44;5.35;;;1.95;;
22298;SDS011;11317;51.072;17.036;2022-08-21T13:59:12;3.25;;;2.10;;
22298;SDS011;11317;51.072;17.036;2022-08-21T14:01:59;2.22;;;1.70;;
22298;SDS011;11317;51.072;17.036;2022-08-21T14:04:51;3.97;;;2.20;;
22298;SDS011;11317;51.072;17.036;2022-08-21T14:07:35;4.13;;;1.80;;
22298;SDS011;11317;51.072;17.036;2022-08-21T14:10:11;2.30;;;1.67;;
22298;SDS011;11317;51.072;17.036;2022-08-21T14:12:45;2.17;;;1.80;;
22298;SDS011;11317;51.072;17.036;2022-08-21T14:15:15;3.25;;;2.03;;
22298;SDS011;11317;51.072;17.036;2022-08-21T14:17:42;2.63;;;2.00;;
22298;SDS011;11317;51.072;17.036;2022-08-21T14:20:10;2.97;;;1.83;;
22298;SDS011;11317;51.072;17.036;2022-08-21T14:22:49;2.20;;;1.70;;
22298;SDS011;11317;51.072;17.036;2022-08-21T14:28:30;2.50;;;1.95;;
22298;SDS011;11317;51.072;17.036;2022-08-21T14:30:47;3.05;;;2.00;;
22298;SDS011;11317;51.072;17.036;2022-08-21T14:33:18;3.75;;;1.95;;
22298;SDS011;11317;51.072;17.036;2022-08-21T14:35:55;2.42;;;1.67;;
22298;SDS011;11317;51.072;17.036;2022-08-21T14:38:22;2.70;;;2.03;;
22298;SDS011;11317;51.072;17.036;2022-08-21T14:40:50;3.03;;;1.77;;
22298;SDS011;11317;51.072;17.036;2022-08-21T14:43:18;1.70;;;1.48;;
22298;SDS011;11317;51.072;17.036;2022-08-21T14:45:44;2.22;;;1.90;;
22298;SDS011;11317;51.072;17.036;2022-08-21T14:48:10;2.97;;;2.10;;
22298;SDS011;11317;51.072;17.036;2022-08-21T14:50:36;3.50;;;2.00;;
22298;SDS011;11317;51.072;17.036;2022-08-21T14:53:02;2.65;;;1.77;;
22298;SDS011;11317;51.072;17.036;2022-08-21T14:55:29;2.60;;;1.90;;
22298;SDS011;11317;51.072;17.036;2022-08-21T14:58:16;3.72;;;2.20;;
22298;SDS011;11317;51.072;17.036;2022-08-21T15:00:42;2.63;;;2.10;;
22298;SDS011;11317;51.072;17.036;2022-08-21T15:03:08;2.65;;;1.85;;
22298;SDS011;11317;51.072;17.036;2022-08-21T15:05:36;4.15;;;2.15;;
22298;SDS011;11317;51.072;17.036;2022-08-21T15:08:03;3.63;;;2.00;;
22298;SDS011;11317;51.072;17.036;2022-08-21T15:10:29;3.17;;;2.17;;
22298;SDS011;11317;51.072;17.036;2022-08-21T15:12:57;3.42;;;2.05;;
22298;SDS011;11317;51.072;17.036;2022-08-21T15:15:23;2.33;;;2.08;;
22298;SDS011;11317;51.072;17.036;2022-08-21T15:17:49;5.22;;;2.05;;
22298;SDS011;11317;51.072;17.036;2022-08-21T15:20:15;4.43;;;2.67;;
22298;SDS011;11317;51.072;17.036;2022-08-21T15:22:41;2.70;;;2.10;;
22298;SDS011;11317;51.072;17.036;2022-08-21T15:25:07;4.75;;;2.35;;
22298;SDS011;11317;51.072;17.036;2022-08-21T15:27:33;3.33;;;2.30;;
22298;SDS011;11317;51.072;17.036;2022-08-21T15:30:00;3.15;;;2.22;;
22298;SDS011;11317;51.072;17.036;2022-08-21T15:32:28;5.22;;;2.50;;
22298;SDS011;11317;51.072;17.036;2022-08-21T15:34:56;3.75;;;2.25;;
22298;SDS011;11317;51.072;17.036;2022-08-21T15:37:22;4.40;;;2.50;;
22298;SDS011;11317;51.072;17.036;2022-08-21T15:39:49;3.25;;;2.22;;
22298;SDS011;11317;51.072;17.036;2022-08-21T15:42:15;4.03;;;2.90;;
22298;SDS011;11317;51.072;17.036;2022-08-21T15:44:42;3.50;;;2.78;;
22298;SDS011;11317;51.072;17.036;2022-08-21T15:47:09;3.55;;;2.53;;